Terminal Aerodrome Forecast
Issued by NWS Blacksburg, VA

Home | Current Version | Previous Version | Text Only | Print | Product List | Glossary On
Versions: 1 2 3 4 5 6 7 8 9 10 11 12 13 14 15 16 17 18 19 20 21 22 23 24 25 26 27 28 29 30 31 32 33 34 35 36 37
000
FTUS41 KRNK 291140
TAFBLF
TAF
KBLF 291140Z 2912/3012 16005KT P6SM BKN150 OVC250
     FM291500 21012G21KT P6SM -SHRA BKN050 OVC100
      TEMPO 2916/2920 5SM -SHRA BKN035 OVC050
     FM292000 23014G24KT P6SM -SHRA SCT025 OVC050
     FM300200 28015G28KT 4SM -SHSN OVC010=

USA.gov is the U.S. government's official web portal to all federal, state and local government web resources and services.